Time;durP1;ratioP1;P1;durP2;ratioP2;P2;SDS_P1;SDS_P2;PMS_P1;PMS_P2;Temp;Humidity;BMP_temperature;BMP_pressure;BME280_temperature;BME280_humidity;BME280_pressure;Samples;Min_cycle;Max_cycle;Signal;HPM_P1;HPM_P2
2022/05/07 00:00:08;;;;;;;;;;;;;;;29.22;24.67;101503.50;5063943;28;1190;-34
2022/05/07 00:02:34;;;;;;;;;;;;;;;29.19;23.93;101498.44;5056572;28;760;-31
2022/05/07 00:05:00;;;;;;;;;;;;;;;28.99;24.21;101498.03;5062356;28;1914;-30
2022/05/07 00:07:25;;;;;;;;;;;;;;;28.82;24.33;101508.94;5076111;28;777;-33
2022/05/07 00:09:50;;;;;;;;;;;;;;;29.24;24.54;101501.47;5075686;28;831;-32
2022/05/07 00:12:15;;;;;;;;;;;;;;;28.85;25.02;101492.31;5062697;28;840;-32
2022/05/07 00:14:41;;;;;;;;;;;;;;;29.02;24.95;101493.13;5056322;28;859;-32
2022/05/07 00:19:50;;;;;;;;;;;;;;;29.14;24.40;101495.41;5068135;28;833;-33
2022/05/07 00:22:16;;;;;;;;;;;;;;;29.55;24.16;101497.00;5059036;28;767;-31
2022/05/07 00:24:41;;;;;;;;;;;;;;;29.33;24.50;101496.81;5062239;28;877;-32
2022/05/07 00:27:06;;;;;;;;;;;;;;;29.25;24.41;101495.00;5055914;28;1889;-34
2022/05/07 00:29:32;;;;;;;;;;;;;;;29.21;24.04;101489.09;5056222;28;795;-33
2022/05/07 00:31:57;;;;;;;;;;;;;;;29.23;24.73;101498.94;5056458;28;921;-32
2022/05/07 00:34:24;;;;;;;;;;;;;;;29.12;25.04;101498.31;5055791;28;832;-34
2022/05/07 00:36:49;;;;;;;;;;;;;;;28.86;25.58;101504.88;5070120;28;841;-33
2022/05/07 00:39:15;;;;;;;;;;;;;;;29.17;24.97;101505.91;5060043;28;813;-32
2022/05/07 00:41:40;;;;;;;;;;;;;;;29.31;24.07;101501.59;5059924;28;774;-33
2022/05/07 00:44:05;;;;;;;;;;;;;;;29.24;24.05;101497.91;5059697;28;812;-34
2022/05/07 00:46:31;;;;;;;;;;;;;;;29.18;24.16;101507.56;5059817;28;1963;-33
2022/05/07 00:48:57;;;;;;;;;;;;;;;29.31;24.84;101501.59;5065546;28;844;-30
2022/05/07 00:51:34;;;;;;;;;;;;;;;29.36;24.46;101498.31;5077356;28;774;-31
2022/05/07 00:54:00;;;;;;;;;;;;;;;29.38;24.31;101491.69;5078762;28;778;-32
2022/05/07 00:56:25;;;;;;;;;;;;;;;29.31;24.66;101493.47;5079032;28;830;-33
2022/05/07 00:58:51;;;;;;;;;;;;;;;29.60;24.37;101497.31;5073754;28;1016;-34
2022/05/07 01:01:16;;;;;;;;;;;;;;;29.27;24.84;101489.41;5063570;28;1080;-34
2022/05/07 01:03:41;;;;;;;;;;;;;;;29.40;24.25;101492.38;5061449;28;826;-32
2022/05/07 01:06:07;;;;;;;;;;;;;;;29.27;24.84;101482.13;5048272;28;1973;-33
2022/05/07 01:08:33;;;;;;;;;;;;;;;29.49;24.65;101478.75;5041452;28;1173;-31
2022/05/07 01:10:58;;;;;;;;;;;;;;;29.43;24.52;101475.75;5059354;28;833;-30
2022/05/07 01:13:23;;;;;;;;;;;;;;;29.50;24.50;101478.56;5063436;28;805;-30
2022/05/07 01:15:53;;;;;;;;;;;;;;;29.44;23.94;101477.44;5045213;28;921;-32
2022/05/07 01:18:18;;;;;;;;;;;;;;;29.02;24.22;101473.31;5059550;28;774;-34
2022/05/07 01:20:44;;;;;;;;;;;;;;;29.43;24.51;101472.16;5068234;28;874;-33
2022/05/07 01:23:09;;;;;;;;;;;;;;;29.21;24.99;101475.56;5078459;28;885;-34
2022/05/07 01:25:34;;;;;;;;;;;;;;;29.41;24.13;101472.34;5077383;28;1955;-33
2022/05/07 01:27:59;;;;;;;;;;;;;;;29.31;23.75;101478.03;5070383;28;794;-30
2022/05/07 01:30:25;;;;;;;;;;;;;;;29.04;24.28;101484.81;5059236;28;873;-33
2022/05/07 01:32:50;;;;;;;;;;;;;;;29.27;24.89;101476.72;5058453;28;771;-31
2022/05/07 01:35:16;;;;;;;;;;;;;;;29.11;25.18;101471.41;5065774;28;866;-36
2022/05/07 01:37:41;;;;;;;;;;;;;;;29.41;24.42;101480.47;5078165;28;806;-32
2022/05/07 01:40:06;;;;;;;;;;;;;;;29.44;23.84;101480.16;5070844;28;929;-32
2022/05/07 01:42:32;;;;;;;;;;;;;;;28.96;24.27;101477.56;5058822;28;929;-35
2022/05/07 01:44:57;;;;;;;;;;;;;;;29.42;24.80;101479.47;5059226;28;1898;-32
2022/05/07 01:50:07;;;;;;;;;;;;;;;29.25;24.93;101467.91;5070363;28;820;-32
2022/05/07 01:52:32;;;;;;;;;;;;;;;29.32;24.07;101471.59;5076393;28;801;-33
2022/05/07 01:54:57;;;;;;;;;;;;;;;29.11;24.09;101468.69;5058417;28;901;-33
2022/05/07 01:57:23;;;;;;;;;;;;;;;29.16;24.43;101461.69;5058412;28;779;-31
2022/05/07 01:59:48;;;;;;;;;;;;;;;29.06;25.07;101472.75;5070637;28;1369;-34
2022/05/07 02:02:13;;;;;;;;;;;;;;;28.92;25.28;101462.66;5058333;28;930;-30
2022/05/07 02:04:39;;;;;;;;;;;;;;;29.39;24.77;101454.59;5076064;28;865;-31
2022/05/07 02:07:04;;;;;;;;;;;;;;;29.42;24.22;101455.09;5058229;28;1910;-35
2022/05/07 02:09:29;;;;;;;;;;;;;;;29.20;24.53;101459.47;5058009;28;823;-33
2022/05/07 02:11:55;;;;;;;;;;;;;;;29.40;24.74;101467.97;5058335;28;1422;-32
2022/05/07 02:14:20;;;;;;;;;;;;;;;28.96;25.00;101462.13;5058413;28;834;-32
2022/05/07 02:16:45;;;;;;;;;;;;;;;29.14;25.13;101460.19;5059802;28;1345;-30
2022/05/07 02:19:11;;;;;;;;;;;;;;;29.34;24.27;101466.81;5066211;28;916;-31
2022/05/07 02:21:36;;;;;;;;;;;;;;;29.07;24.14;101460.94;5064993;28;778;-33
2022/05/07 02:24:01;;;;;;;;;;;;;;;29.02;24.60;101476.88;5057607;28;812;-32
2022/05/07 02:26:26;;;;;;;;;;;;;;;29.28;24.88;101480.28;5057832;28;1902;-32
2022/05/07 02:28:52;;;;;;;;;;;;;;;29.01;25.19;101480.56;5057985;28;850;-32
2022/05/07 02:31:17;;;;;;;;;;;;;;;29.36;24.81;101479.34;5066626;28;920;-32
2022/05/07 02:33:43;;;;;;;;;;;;;;;29.38;24.15;101490.88;5076826;28;782;-37
2022/05/07 02:36:08;;;;;;;;;;;;;;;29.02;24.60;101482.28;5064675;28;844;-33
2022/05/07 02:38:33;;;;;;;;;;;;;;;28.99;24.70;101487.22;5057528;28;924;-32
2022/05/07 02:43:42;;;;;;;;;;;;;;;28.99;25.40;101476.38;5067713;28;725;-33
2022/05/07 02:46:09;;;;;;;;;;;;;;;29.43;24.84;101478.44;5057662;28;1898;-30
2022/05/07 02:48:36;;;;;;;;;;;;;;;29.43;24.52;101478.44;5057421;28;1039;-31
2022/05/07 02:51:02;;;;;;;;;;;;;;;28.98;24.63;101472.81;5064186;28;1018;-32
2022/05/07 02:53:27;;;;;;;;;;;;;;;29.38;25.03;101470.00;5057593;28;783;-31
2022/05/07 02:55:52;;;;;;;;;;;;;;;29.07;25.07;101474.47;5064039;28;909;-34
2022/05/07 02:58:18;;;;;;;;;;;;;;;29.28;25.05;101481.09;5057783;28;958;-34
2022/05/07 03:00:43;;;;;;;;;;;;;;;29.37;24.35;101484.59;5067149;28;1151;-31
2022/05/07 03:03:08;;;;;;;;;;;;;;;28.96;24.79;101482.97;5057610;28;921;-31
2022/05/07 03:05:33;;;;;;;;;;;;;;;29.08;24.74;101486.13;5063584;28;1910;-31
2022/05/07 03:08:00;;;;;;;;;;;;;;;29.26;25.14;101474.19;5057996;28;842;-34
2022/05/07 03:10:25;;;;;;;;;;;;;;;28.96;25.66;101469.44;5062979;28;789;-32
2022/05/07 03:12:50;;;;;;;;;;;;;;;29.31;25.01;101472.59;5057158;28;904;-33
2022/05/07 03:15:16;;;;;;;;;;;;;;;28.22;18.54;101469.53;5056679;28;822;-33
2022/05/07 03:17:41;;;;;;;;;;;;;;;26.99;19.47;101462.03;5063310;28;962;-30
2022/05/07 03:20:09;;;;;;;;;;;;;;;26.34;19.42;101461.59;5071897;28;828;-31
2022/05/07 03:22:35;;;;;;;;;;;;;;;26.02;19.80;101472.03;5056239;28;845;-33
2022/05/07 03:25:00;;;;;;;;;;;;;;;25.90;19.72;101459.78;5057191;28;1949;-29
2022/05/07 03:27:29;;;;;;;;;;;;;;;25.84;19.74;101461.25;5056536;28;829;-30
2022/05/07 03:29:54;;;;;;;;;;;;;;;25.77;19.51;101461.06;5056368;28;794;-29
2022/05/07 03:32:19;;;;;;;;;;;;;;;25.62;19.89;101457.19;5056365;28;854;-30
2022/05/07 03:34:45;;;;;;;;;;;;;;;25.46;19.56;101458.72;5068755;28;809;-31
2022/05/07 03:37:10;;;;;;;;;;;;;;;25.87;21.63;101452.03;5057626;28;877;-31
2022/05/07 03:39:36;;;;;;;;;;;;;;;26.11;21.31;101458.59;5056600;28;850;-30
2022/05/07 03:42:01;;;;;;;;;;;;;;;26.15;21.30;101458.13;5056902;28;837;-30
2022/05/07 03:44:26;;;;;;;;;;;;;;;26.19;21.55;101455.09;5056508;28;798;-33
2022/05/07 03:46:52;;;;;;;;;;;;;;;26.19;21.40;101457.78;5059799;28;1902;-32
2022/05/07 03:49:17;;;;;;;;;;;;;;;26.13;20.85;101462.81;5068646;28;1052;-29
2022/05/07 03:54:26;;;;;;;;;;;;;;;26.52;22.08;101458.84;5056228;28;790;-31
2022/05/07 03:56:52;;;;;;;;;;;;;;;26.55;22.52;101465.75;5056238;28;874;-32
2022/05/07 03:59:17;;;;;;;;;;;;;;;26.66;22.67;101464.63;5061874;28;1036;-31
2022/05/07 04:01:42;;;;;;;;;;;;;;;25.63;21.65;101459.75;5057592;28;1256;-29
2022/05/07 04:04:08;;;;;;;;;;;;;;;22.83;23.14;101455.38;5055909;28;865;-29
2022/05/07 04:06:33;;;;;;;;;;;;;;;21.92;23.98;101455.03;5062742;28;1969;-28
2022/05/07 04:08:58;;;;;;;;;;;;;;;21.27;24.59;101462.09;5056320;28;913;-31
2022/05/07 04:11:23;;;;;;;;;;;;;;;20.82;25.39;101459.47;5060799;28;771;-32
2022/05/07 04:13:49;;;;;;;;;;;;;;;21.19;25.14;101456.50;5070411;28;781;-28
2022/05/07 04:16:14;;;;;;;;;;;;;;;22.39;23.78;101453.75;5060186;28;814;-27
2022/05/07 04:18:39;;;;;;;;;;;;;;;23.02;23.16;101456.41;5060005;28;845;-29
2022/05/07 04:21:05;;;;;;;;;;;;;;;23.19;23.38;101454.91;5075121;28;987;-29
2022/05/07 04:23:30;;;;;;;;;;;;;;;23.24;23.00;101458.84;5079705;28;746;-28
2022/05/07 04:25:57;;;;;;;;;;;;;;;22.99;24.02;101460.19;5068693;28;1894;-29
2022/05/07 04:28:22;;;;;;;;;;;;;;;23.14;23.88;101460.66;5059853;28;814;-30
2022/05/07 04:30:47;;;;;;;;;;;;;;;23.18;23.64;101469.28;5059760;28;818;-30
2022/05/07 04:33:14;;;;;;;;;;;;;;;23.00;23.35;101475.31;5059956;28;802;-29
2022/05/07 04:35:40;;;;;;;;;;;;;;;23.14;23.36;101473.25;5066407;28;987;-27
2022/05/07 04:38:05;;;;;;;;;;;;;;;23.35;23.27;101479.34;5071200;28;865;-30
2022/05/07 04:40:30;;;;;;;;;;;;;;;23.45;22.91;101479.41;5059320;28;919;-29
2022/05/07 04:42:56;;;;;;;;;;;;;;;23.44;23.23;101483.06;5060112;28;753;-28
2022/05/07 04:45:21;;;;;;;;;;;;;;;23.33;23.49;101469.72;5059591;28;1959;-32
2022/05/07 04:47:46;;;;;;;;;;;;;;;23.46;23.00;101477.53;5059669;28;905;-29
2022/05/07 04:50:13;;;;;;;;;;;;;;;23.28;22.86;101469.28;5064692;28;861;-29
2022/05/07 04:52:38;;;;;;;;;;;;;;;23.18;23.30;101480.88;5060490;28;813;-30
2022/05/07 04:55:04;;;;;;;;;;;;;;;23.20;23.75;101484.28;5059781;28;817;-29
2022/05/07 04:57:29;;;;;;;;;;;;;;;23.05;24.04;101481.13;5059907;28;897;-33
2022/05/07 04:59:54;;;;;;;;;;;;;;;23.43;24.22;101486.72;5067741;28;1180;-30
2022/05/07 05:02:20;;;;;;;;;;;;;;;23.73;23.78;101484.91;5058960;28;806;-30
2022/05/07 05:04:45;;;;;;;;;;;;;;;23.76;23.74;101493.66;5069299;28;822;-31
2022/05/07 05:07:10;;;;;;;;;;;;;;;23.93;23.77;101498.31;5061667;28;1917;-28
2022/05/07 05:09:36;;;;;;;;;;;;;;;24.00;23.87;101497.75;5059085;28;893;-30
2022/05/07 05:12:01;;;;;;;;;;;;;;;24.13;23.67;101494.75;5059134;28;829;-30
2022/05/07 05:17:10;;;;;;;;;;;;;;;24.48;23.32;101493.28;5065152;28;894;-31
2022/05/07 05:19:36;;;;;;;;;;;;;;;25.14;22.46;101497.81;5064799;28;851;-30
2022/05/07 05:22:02;;;;;;;;;;;;;;;24.37;23.83;101494.31;5059952;28;814;-29
2022/05/07 05:24:27;;;;;;;;;;;;;;;24.33;24.05;101499.13;5058829;28;813;-31
2022/05/07 05:26:52;;;;;;;;;;;;;;;24.34;24.05;101498.13;5058990;28;1967;-32
2022/05/07 05:29:18;;;;;;;;;;;;;;;24.46;23.96;101498.81;5069502;28;998;-30
2022/05/07 05:31:43;;;;;;;;;;;;;;;24.51;23.97;101505.56;5059084;28;827;-29
2022/05/07 05:34:08;;;;;;;;;;;;;;;24.56;23.86;101501.44;5058761;28;935;-29
2022/05/07 05:36:33;;;;;;;;;;;;;;;24.53;23.98;101499.06;5073817;28;845;-30
2022/05/07 05:38:59;;;;;;;;;;;;;;;24.53;24.17;101499.06;5078063;28;765;-30
2022/05/07 05:41:25;;;;;;;;;;;;;;;24.54;24.35;101506.13;5075064;28;782;-32
2022/05/07 05:43:50;;;;;;;;;;;;;;;24.54;24.53;101514.19;5058849;28;731;-32
2022/05/07 05:46:15;;;;;;;;;;;;;;;24.54;24.51;101516.88;5058702;28;1963;-30
2022/05/07 05:48:41;;;;;;;;;;;;;;;24.60;24.82;101512.78;5058465;28;863;-32
2022/05/07 05:51:07;;;;;;;;;;;;;;;24.51;24.87;101519.00;5065009;28;1553;-29
2022/05/07 05:53:32;;;;;;;;;;;;;;;24.57;25.01;101521.13;5062270;28;811;-31
2022/05/07 05:55:59;;;;;;;;;;;;;;;24.64;25.05;101518.72;5064491;28;847;-29
2022/05/07 05:58:24;;;;;;;;;;;;;;;24.68;25.01;101514.72;5059405;28;1084;-31
2022/05/07 06:00:52;;;;;;;;;;;;;;;24.76;25.00;101525.59;5064552;28;1069;-31
2022/05/07 06:03:18;;;;;;;;;;;;;;;24.77;25.88;101529.13;5058580;28;818;-33
2022/05/07 06:05:43;;;;;;;;;;;;;;;24.97;27.07;101535.31;5064486;28;1910;-31
2022/05/07 06:08:08;;;;;;;;;;;;;;;25.14;27.42;101530.94;5071056;28;1103;-30
2022/05/07 06:10:34;;;;;;;;;;;;;;;25.09;26.63;101525.16;5058888;28;786;-28
2022/05/07 06:12:59;;;;;;;;;;;;;;;25.12;26.48;101535.66;5058046;28;861;-33
2022/05/07 06:15:24;;;;;;;;;;;;;;;25.13;26.23;101531.97;5058095;28;861;-30
2022/05/07 06:17:50;;;;;;;;;;;;;;;25.00;26.24;101529.63;5057945;28;774;-29
2022/05/07 06:20:15;;;;;;;;;;;;;;;25.05;26.42;101527.34;5070471;28;1179;-29
2022/05/07 06:22:40;;;;;;;;;;;;;;;25.11;26.52;101531.25;5076735;28;810;-32
2022/05/07 06:27:49;;;;;;;;;;;;;;;25.16;26.50;101531.66;5077020;28;698;-30
2022/05/07 06:30:14;;;;;;;;;;;;;;;25.12;26.63;101532.09;5076766;28;870;-31
2022/05/07 06:32:40;;;;;;;;;;;;;;;25.19;26.40;101531.34;5071254;28;769;-28
2022/05/07 06:35:06;;;;;;;;;;;;;;;25.18;26.51;101528.81;5067332;28;911;-29
2022/05/07 06:37:32;;;;;;;;;;;;;;;25.06;26.67;101530.84;5041354;28;1125;-32
2022/05/07 06:39:57;;;;;;;;;;;;;;;25.14;26.29;101530.94;5057455;28;778;-34
2022/05/07 06:42:23;;;;;;;;;;;;;;;25.15;26.34;101534.50;5057540;28;874;-32
2022/05/07 06:44:48;;;;;;;;;;;;;;;25.18;25.81;101528.81;5064237;28;793;-30
2022/05/07 06:47:14;;;;;;;;;;;;;;;25.23;25.70;101531.91;5060318;28;1963;-29
2022/05/07 06:49:40;;;;;;;;;;;;;;;25.43;25.10;101537.16;5063500;28;765;-28
2022/05/07 06:52:05;;;;;;;;;;;;;;;25.46;24.89;101533.31;5060409;28;796;-28
2022/05/07 06:54:30;;;;;;;;;;;;;;;25.42;24.53;101530.91;5056831;28;843;-31
2022/05/07 06:56:56;;;;;;;;;;;;;;;25.38;24.36;101534.06;5056914;28;783;-28
2022/05/07 06:59:21;;;;;;;;;;;;;;;25.49;24.39;101535.72;5070007;28;1016;-27
2022/05/07 07:01:47;;;;;;;;;;;;;;;25.54;24.13;101533.41;5056931;28;1147;-30
2022/05/07 07:04:12;;;;;;;;;;;;;;;25.44;24.65;101534.31;5058423;28;915;-28
2022/05/07 07:06:37;;;;;;;;;;;;;;;25.45;24.69;101532.47;5061613;28;1964;-32
2022/05/07 07:09:03;;;;;;;;;;;;;;;25.56;24.36;101531.38;5057042;28;1381;-30
2022/05/07 07:11:28;;;;;;;;;;;;;;;25.49;24.36;101535.72;5066121;28;898;-34
2022/05/07 07:13:54;;;;;;;;;;;;;;;25.55;24.66;101530.56;5056374;28;870;-32
2022/05/07 07:16:19;;;;;;;;;;;;;;;25.64;24.50;101522.59;5056634;28;780;-29
2022/05/07 07:18:44;;;;;;;;;;;;;;;25.66;24.63;101520.56;5056706;28;783;-29
2022/05/07 07:21:11;;;;;;;;;;;;;;;25.58;24.41;101529.38;5075007;28;975;-32
2022/05/07 07:23:36;;;;;;;;;;;;;;;25.66;24.33;101531.34;5069220;28;1069;-28
2022/05/07 07:26:01;;;;;;;;;;;;;;;25.56;24.36;101518.78;5057459;28;1965;-32
2022/05/07 07:28:27;;;;;;;;;;;;;;;25.52;24.65;101527.31;5056888;28;782;-29
2022/05/07 07:30:52;;;;;;;;;;;;;;;25.52;24.73;101525.47;5056537;28;1040;-32
2022/05/07 07:33:18;;;;;;;;;;;;;;;25.58;24.63;101520.44;5056769;28;854;-29
2022/05/07 07:35:43;;;;;;;;;;;;;;;25.58;24.79;101521.31;5066612;28;825;-30
2022/05/07 07:38:08;;;;;;;;;;;;;;;25.58;25.24;101524.00;5059501;28;739;-29
2022/05/07 07:40:34;;;;;;;;;;;;;;;25.55;25.14;101533.25;5056338;28;866;-31
2022/05/07 07:42:59;;;;;;;;;;;;;;;25.72;24.96;101529.88;5056432;28;743;-32
2022/05/07 07:48:08;;;;;;;;;;;;;;;25.69;24.02;101536.44;5060232;28;766;-31
2022/05/07 07:50:34;;;;;;;;;;;;;;;25.54;23.89;101542.31;5067222;28;1430;-29
2022/05/07 07:53:01;;;;;;;;;;;;;;;25.48;24.79;101542.94;5056458;28;892;-29
2022/05/07 07:55:27;;;;;;;;;;;;;;;25.79;24.59;101553.38;5055856;28;795;-29
2022/05/07 07:57:59;;;;;;;;;;;;;;;25.65;23.52;101556.59;5056004;28;872;-30
2022/05/07 08:00:24;;;;;;;;;;;;;;;25.76;23.02;101558.22;5068598;28;1032;-29
2022/05/07 08:02:50;;;;;;;;;;;;;;;25.80;22.21;101562.31;5064546;28;858;-30
2022/05/07 08:05:17;;;;;;;;;;;;;;;25.66;22.18;101559.13;5066903;28;1902;-29
2022/05/07 08:13:10;;;;;;;;;;;;;;;25.72;21.76;101563.09;5075101;28;737;-30
2022/05/07 08:15:35;;;;;;;;;;;;;;;25.73;21.41;101558.53;5067657;28;771;-33
2022/05/07 08:18:00;;;;;;;;;;;;;;;25.96;21.89;101558.91;5056047;28;1084;-29
2022/05/07 08:20:26;;;;;;;;;;;;;;;26.20;22.19;101560.09;5062828;28;915;-32
2022/05/07 08:22:51;;;;;;;;;;;;;;;26.17;22.92;101561.25;5074817;28;779;-30
2022/05/07 08:25:16;;;;;;;;;;;;;;;26.18;23.94;101556.72;5075476;28;1882;-31
2022/05/07 08:27:41;;;;;;;;;;;;;;;26.29;24.15;101561.84;5068446;28;899;-30
2022/05/07 08:30:07;;;;;;;;;;;;;;;26.42;23.64;101552.53;5075116;28;750;-30
2022/05/07 08:32:32;;;;;;;;;;;;;;;26.39;23.79;101560.94;5074973;28;826;-28
2022/05/07 08:34:58;;;;;;;;;;;;;;;26.44;23.91;101560.47;5064908;28;821;-28
2022/05/07 08:37:23;;;;;;;;;;;;;;;26.39;24.02;101553.69;5055999;28;992;-29
2022/05/07 08:39:48;;;;;;;;;;;;;;;26.44;23.83;101553.22;5065721;28;773;-32
2022/05/07 08:42:14;;;;;;;;;;;;;;;26.55;23.37;101549.41;5056957;28;857;-32
2022/05/07 08:44:39;;;;;;;;;;;;;;;26.60;23.90;101552.47;5037043;28;1001;-30
2022/05/07 08:47:05;;;;;;;;;;;;;;;26.74;24.07;101548.31;5055840;28;1897;-32
2022/05/07 08:49:30;;;;;;;;;;;;;;;26.71;23.88;101551.34;5059730;28;936;-29
2022/05/07 08:51:55;;;;;;;;;;;;;;;26.70;24.39;101552.34;5063366;28;862;-29
2022/05/07 08:54:20;;;;;;;;;;;;;;;26.58;24.79;101557.19;5040486;28;898;-32
2022/05/07 08:56:46;;;;;;;;;;;;;;;26.66;23.88;101553.66;5037227;28;869;-35
2022/05/07 08:59:11;;;;;;;;;;;;;;;26.76;24.22;101556.25;5066629;28;1038;-29
2022/05/07 09:01:36;;;;;;;;;;;;;;;26.81;24.35;101547.69;5063132;28;1083;-32
2022/05/07 09:04:09;;;;;;;;;;;;;;;26.76;24.08;101546.31;5058857;28;860;-30
2022/05/07 09:06:34;;;;;;;;;;;;;;;26.84;23.61;101542.78;5069530;28;1977;-34
2022/05/07 09:08:59;;;;;;;;;;;;;;;26.75;24.15;101550.03;5059577;28;890;-31
2022/05/07 09:11:26;;;;;;;;;;;;;;;26.83;24.44;101557.31;5058531;28;850;-29
2022/05/07 09:14:01;;;;;;;;;;;;;;;26.78;24.71;101560.50;5059279;28;818;-30
2022/05/07 09:16:35;;;;;;;;;;;;;;;26.71;24.61;101554.03;5059318;28;1015;-29
2022/05/07 09:19:01;;;;;;;;;;;;;;;26.78;25.15;101560.50;5065065;28;892;-29
2022/05/07 09:21:26;;;;;;;;;;;;;;;26.76;25.29;101564.34;5065769;28;870;-33
2022/05/07 09:23:57;;;;;;;;;;;;;;;26.81;24.54;101551.22;5059310;28;750;-31
2022/05/07 09:26:29;;;;;;;;;;;;;;;26.94;24.74;101558.03;5058453;28;1901;-29
2022/05/07 09:28:55;;;;;;;;;;;;;;;26.90;24.58;101558.38;5058978;28;791;-30
2022/05/07 09:31:26;;;;;;;;;;;;;;;26.82;25.21;101554.78;5069570;28;802;-32
2022/05/07 09:33:52;;;;;;;;;;;;;;;26.69;24.87;101539.88;5058514;28;872;-28
2022/05/07 09:36:17;;;;;;;;;;;;;;;26.62;25.45;101550.47;5065193;28;825;-31
2022/05/07 09:38:43;;;;;;;;;;;;;;;26.90;24.89;101547.56;5058997;28;874;-32
2022/05/07 09:41:17;;;;;;;;;;;;;;;26.87;25.00;101550.59;5058753;28;786;-33
2022/05/07 09:43:44;;;;;;;;;;;;;;;26.93;25.42;101538.28;5064782;28;813;-29
2022/05/07 09:46:09;;;;;;;;;;;;;;;27.05;25.45;101548.81;5058120;28;1963;-29
2022/05/07 09:48:36;;;;;;;;;;;;;;;26.94;24.94;101552.63;5039655;28;878;-32
2022/05/07 09:51:01;;;;;;;;;;;;;;;26.89;25.27;101545.84;5075364;28;1002;-31
2022/05/07 09:58:54;;;;;;;;;;;;;;;26.90;25.50;101544.00;5068249;28;1045;-34
2022/05/07 10:01:35;;;;;;;;;;;;;;;27.05;25.15;101551.50;5063074;28;1009;-32
2022/05/07 10:04:19;;;;;;;;;;;;;;;26.99;25.27;101539.50;5059151;28;848;-30
2022/05/07 10:06:45;;;;;;;;;;;;;;;27.01;25.52;101545.56;5065632;28;1917;-30
2022/05/07 10:09:25;;;;;;;;;;;;;;;26.96;25.45;101540.66;5064060;28;840;-29
2022/05/07 10:11:54;;;;;;;;;;;;;;;26.90;25.89;101541.31;5071002;28;806;-31
2022/05/07 10:14:26;;;;;;;;;;;;;;;26.92;26.22;101541.16;5059377;28;834;-28
2022/05/07 10:17:07;;;;;;;;;;;;;;;26.87;25.92;101536.25;5058296;28;891;-29
2022/05/07 10:19:38;;;;;;;;;;;;;;;26.94;26.05;101533.75;5060132;28;868;-31
2022/05/07 10:22:04;;;;;;;;;;;;;;;27.01;25.90;101530.25;5065932;28;834;-31
2022/05/07 10:24:29;;;;;;;;;;;;;;;27.10;25.92;101532.97;5058964;28;1379;-31
2022/05/07 10:26:56;;;;;;;;;;;;;;;27.18;25.93;101524.91;5056659;28;1901;-30
2022/05/07 10:29:25;;;;;;;;;;;;;;;27.16;25.96;101529.59;5076878;28;810;-29
2022/05/07 10:31:50;;;;;;;;;;;;;;;27.10;26.29;101530.28;5070988;28;985;-30
2022/05/07 10:34:25;;;;;;;;;;;;;;;27.14;26.13;101534.34;5052420;28;1488;-31
2022/05/07 10:37:03;;;;;;;;;;;;;;;27.17;25.27;101535.88;5060851;28;842;-31
2022/05/07 10:39:29;;;;;;;;;;;;;;;26.96;26.12;101529.84;5057425;28;793;-29
2022/05/07 10:41:54;;;;;;;;;;;;;;;27.03;25.62;101535.47;5057432;28;810;-33
2022/05/07 10:44:32;;;;;;;;;;;;;;;27.23;25.75;101537.91;5057363;28;799;-34
2022/05/07 10:47:24;;;;;;;;;;;;;;;27.05;26.22;101536.16;5061501;28;1963;-29
2022/05/07 10:49:53;;;;;;;;;;;;;;;27.17;25.68;101535.88;5065659;28;2120;-30
2022/05/07 10:52:31;;;;;;;;;;;;;;;27.12;26.09;101531.81;5061319;28;827;-29
2022/05/07 10:55:03;;;;;;;;;;;;;;;27.15;26.05;101530.63;5057352;28;808;-29
2022/05/07 10:57:38;;;;;;;;;;;;;;;27.12;26.20;101531.81;5057538;28;734;-31
2022/05/07 11:00:04;;;;;;;;;;;;;;;27.17;26.09;101528.63;5061921;28;1031;-29
2022/05/07 11:02:30;;;;;;;;;;;;;;;27.30;26.03;101528.13;5039940;28;1357;-32
2022/05/07 11:04:55;;;;;;;;;;;;;;;27.28;25.89;101524.75;5065471;28;874;-31
2022/05/07 11:07:21;;;;;;;;;;;;;;;27.22;26.40;101533.53;5059169;28;1918;-33
2022/05/07 11:09:53;;;;;;;;;;;;;;;27.14;26.35;101523.56;5056338;28;814;-30
2022/05/07 11:12:21;;;;;;;;;;;;;;;27.30;26.25;101516.47;5043900;28;832;-29
2022/05/07 11:14:46;;;;;;;;;;;;;;;27.41;25.89;101526.97;5058327;28;770;-31
2022/05/07 11:17:11;;;;;;;;;;;;;;;27.20;25.18;101522.03;5056595;28;797;-32
2022/05/07 11:19:37;;;;;;;;;;;;;;;27.29;24.84;101521.06;5044671;28;888;-30
2022/05/07 11:22:03;;;;;;;;;;;;;;;27.33;25.25;101519.69;5058592;28;818;-31
2022/05/07 11:24:29;;;;;;;;;;;;;;;27.43;25.24;101526.78;5059252;28;900;-31
2022/05/07 11:27:02;;;;;;;;;;;;;;;27.47;25.61;101528.16;5066157;28;1913;-30
2022/05/07 11:29:28;;;;;;;;;;;;;;;27.39;25.85;101524.44;5056275;28;826;-28
2022/05/07 11:31:59;;;;;;;;;;;;;;;27.39;25.64;101524.44;5056398;28;869;-31
2022/05/07 11:34:31;;;;;;;;;;;;;;;27.37;26.00;101522.91;5061140;28;841;-29
2022/05/07 11:37:08;;;;;;;;;;;;;;;27.36;26.08;101524.78;5057366;28;933;-31
2022/05/07 11:39:33;;;;;;;;;;;;;;;27.42;26.03;101528.69;5062919;28;858;-32
2022/05/07 11:41:59;;;;;;;;;;;;;;;27.62;25.30;101531.06;5056540;28;807;-31
2022/05/07 11:47:21;;;;;;;;;;;;;;;27.51;25.76;101535.78;5056230;28;1941;-30
2022/05/07 11:49:56;;;;;;;;;;;;;;;27.48;25.97;101535.25;5063326;28;806;-31
2022/05/07 11:52:21;;;;;;;;;;;;;;;27.49;25.84;101532.38;5065513;28;856;-29
2022/05/07 11:54:50;;;;;;;;;;;;;;;27.48;25.98;101530.72;5037970;28;1139;-32
2022/05/07 11:57:26;;;;;;;;;;;;;;;27.52;25.82;101536.63;5056600;28;755;-28
2022/05/07 11:59:51;;;;;;;;;;;;;;;27.61;25.52;101523.97;5056083;28;1034;-33
2022/05/07 12:02:16;;;;;;;;;;;;;;;27.53;25.80;101523.97;5056005;28;985;-30
2022/05/07 12:04:42;;;;;;;;;;;;;;;27.48;25.95;101521.75;5067905;28;841;-29
2022/05/07 12:07:10;;;;;;;;;;;;;;;27.56;26.31;101518.22;5058578;28;1910;-29
2022/05/07 12:09:35;;;;;;;;;;;;;;;27.63;25.80;101517.38;5055704;28;876;-29
2022/05/07 12:12:01;;;;;;;;;;;;;;;27.69;25.75;101515.91;5056069;28;1463;-30
2022/05/07 12:14:26;;;;;;;;;;;;;;;27.75;25.65;101511.66;5056115;28;758;-32
2022/05/07 12:19:35;;;;;;;;;;;;;;;27.47;26.17;101511.97;5060378;28;880;-30
2022/05/07 12:30:12;;;;;;;;;;;;;;;27.71;26.00;101510.34;5064132;28;881;-30
2022/05/07 12:32:38;;;;;;;;;;;;;;;27.77;25.95;101515.06;5058756;28;723;-29
2022/05/07 12:35:04;;;;;;;;;;;;;;;27.69;26.22;101515.06;5070042;28;971;-30
2022/05/07 12:37:29;;;;;;;;;;;;;;;27.73;26.03;101509.13;5062603;28;780;-30
2022/05/07 12:39:54;;;;;;;;;;;;;;;27.81;25.95;101513.69;5059346;28;873;-31
2022/05/07 12:42:20;;;;;;;;;;;;;;;27.74;25.93;101507.28;5070617;28;850;-30
2022/05/07 12:44:45;;;;;;;;;;;;;;;27.96;26.01;101504.91;5059630;28;834;-29
2022/05/07 12:47:10;;;;;;;;;;;;;;;27.91;26.08;101500.00;5059665;28;1898;-28
2022/05/07 12:49:36;;;;;;;;;;;;;;;27.82;25.58;101503.72;5066040;28;1142;-29
2022/05/07 12:52:03;;;;;;;;;;;;;;;27.67;25.97;101503.53;5064232;28;788;-33
2022/05/07 12:54:29;;;;;;;;;;;;;;;27.61;26.20;101503.19;5065837;28;762;-29
2022/05/07 12:56:55;;;;;;;;;;;;;;;27.93;25.59;101492.56;5059561;28;844;-32
2022/05/07 12:59:20;;;;;;;;;;;;;;;27.86;25.91;101499.69;5059274;28;805;-30
2022/05/07 13:01:45;;;;;;;;;;;;;;;27.88;26.27;101492.22;5059038;28;1250;-31
2022/05/07 13:04:11;;;;;;;;;;;;;;;27.73;26.09;101486.66;5062276;28;900;-29
2022/05/07 13:06:36;;;;;;;;;;;;;;;27.74;26.08;101494.59;5069481;28;1910;-32
2022/05/07 13:09:01;;;;;;;;;;;;;;;27.60;26.17;101485.28;5064976;28;809;-28
2022/05/07 13:11:28;;;;;;;;;;;;;;;27.65;26.21;101489.31;5059916;28;1036;-28
2022/05/07 13:13:56;;;;;;;;;;;;;;;27.84;25.64;101488.19;5041066;28;880;-31
2022/05/07 13:16:22;;;;;;;;;;;;;;;27.62;26.51;101485.13;5078339;28;884;-28
2022/05/07 13:18:47;;;;;;;;;;;;;;;27.54;27.00;101487.81;5078012;28;817;-29
2022/05/07 13:21:12;;;;;;;;;;;;;;;27.53;26.55;101488.84;5065906;28;961;-30
2022/05/07 13:23:38;;;;;;;;;;;;;;;27.66;26.37;101486.44;5058716;28;893;-30
2022/05/07 13:26:03;;;;;;;;;;;;;;;27.64;26.46;101485.81;5059300;28;1906;-32
2022/05/07 13:28:29;;;;;;;;;;;;;;;27.59;26.33;101491.69;5041052;28;793;-31
2022/05/07 13:30:56;;;;;;;;;;;;;;;27.63;26.66;101486.78;5058599;28;814;-31
2022/05/07 13:33:21;;;;;;;;;;;;;;;27.69;26.26;101488.88;5069052;28;938;-29